sensor_id;sensor_type;location;lat;lon;timestamp;P1;durP1;ratioP1;P2;durP2;ratioP2
70505;SDS011;58032;49.820;6.274;2023-02-23T00:01:37;18.95;;;9.85;;
70505;SDS011;58032;49.820;6.274;2023-02-23T00:04:04;22.25;;;10.13;;
70505;SDS011;58032;49.820;6.274;2023-02-23T00:06:31;19.10;;;8.88;;
70505;SDS011;58032;49.820;6.274;2023-02-23T00:08:58;20.63;;;9.60;;
70505;SDS011;58032;49.820;6.274;2023-02-23T00:11:26;19.70;;;9.87;;
70505;SDS011;58032;49.820;6.274;2023-02-23T00:13:54;21.13;;;10.80;;
70505;SDS011;58032;49.820;6.274;2023-02-23T00:16:23;22.70;;;10.18;;
70505;SDS011;58032;49.820;6.274;2023-02-23T00:18:52;22.95;;;10.25;;
70505;SDS011;58032;49.820;6.274;2023-02-23T00:21:23;20.52;;;9.85;;
70505;SDS011;58032;49.820;6.274;2023-02-23T00:23:51;24.97;;;10.93;;
70505;SDS011;58032;49.820;6.274;2023-02-23T00:26:19;23.05;;;10.00;;
70505;SDS011;58032;49.820;6.274;2023-02-23T00:28:48;22.80;;;11.18;;
70505;SDS011;58032;49.820;6.274;2023-02-23T00:31:16;21.02;;;9.95;;
70505;SDS011;58032;49.820;6.274;2023-02-23T00:33:43;20.70;;;10.27;;
70505;SDS011;58032;49.820;6.274;2023-02-23T00:36:11;25.27;;;10.77;;
70505;SDS011;58032;49.820;6.274;2023-02-23T00:38:39;22.63;;;10.10;;
70505;SDS011;58032;49.820;6.274;2023-02-23T00:41:07;23.63;;;10.52;;
70505;SDS011;58032;49.820;6.274;2023-02-23T00:43:38;25.80;;;10.93;;
70505;SDS011;58032;49.820;6.274;2023-02-23T00:46:05;23.40;;;10.68;;
70505;SDS011;58032;49.820;6.274;2023-02-23T00:48:32;23.27;;;10.47;;
70505;SDS011;58032;49.820;6.274;2023-02-23T00:51:03;24.80;;;11.55;;
70505;SDS011;58032;49.820;6.274;2023-02-23T00:53:31;23.90;;;10.90;;
70505;SDS011;58032;49.820;6.274;2023-02-23T00:55:58;23.75;;;10.77;;
70505;SDS011;58032;49.820;6.274;2023-02-23T00:58:25;23.10;;;10.40;;
70505;SDS011;58032;49.820;6.274;2023-02-23T01:00:52;24.40;;;10.93;;
70505;SDS011;58032;49.820;6.274;2023-02-23T01:03:19;24.75;;;9.95;;
70505;SDS011;58032;49.820;6.274;2023-02-23T01:05:46;22.15;;;11.05;;
70505;SDS011;58032;49.820;6.274;2023-02-23T01:08:16;26.67;;;11.65;;
70505;SDS011;58032;49.820;6.274;2023-02-23T01:10:43;24.30;;;10.68;;
70505;SDS011;58032;49.820;6.274;2023-02-23T01:13:18;22.03;;;10.73;;
70505;SDS011;58032;49.820;6.274;2023-02-23T01:15:45;24.50;;;10.88;;
70505;SDS011;58032;49.820;6.274;2023-02-23T01:18:17;26.05;;;11.48;;
70505;SDS011;58032;49.820;6.274;2023-02-23T01:20:44;20.98;;;10.23;;
70505;SDS011;58032;49.820;6.274;2023-02-23T01:23:11;22.83;;;11.00;;
70505;SDS011;58032;49.820;6.274;2023-02-23T01:25:39;23.20;;;10.57;;
70505;SDS011;58032;49.820;6.274;2023-02-23T01:28:06;20.67;;;10.38;;
70505;SDS011;58032;49.820;6.274;2023-02-23T01:30:37;23.35;;;11.23;;
70505;SDS011;58032;49.820;6.274;2023-02-23T01:33:06;21.83;;;9.20;;
70505;SDS011;58032;49.820;6.274;2023-02-23T01:35:32;17.13;;;8.13;;
70505;SDS011;58032;49.820;6.274;2023-02-23T01:37:59;13.83;;;6.30;;
70505;SDS011;58032;49.820;6.274;2023-02-23T01:40:26;16.23;;;7.97;;
70505;SDS011;58032;49.820;6.274;2023-02-23T01:42:56;14.20;;;7.13;;
70505;SDS011;58032;49.820;6.274;2023-02-23T01:47:57;14.95;;;7.75;;
70505;SDS011;58032;49.820;6.274;2023-02-23T01:50:28;16.20;;;7.40;;
70505;SDS011;58032;49.820;6.274;2023-02-23T01:52:56;15.75;;;7.88;;
70505;SDS011;58032;49.820;6.274;2023-02-23T01:55:25;15.30;;;7.63;;
70505;SDS011;58032;49.820;6.274;2023-02-23T01:57:56;15.45;;;6.80;;
70505;SDS011;58032;49.820;6.274;2023-02-23T02:00:25;18.95;;;7.93;;
70505;SDS011;58032;49.820;6.274;2023-02-23T02:02:51;17.30;;;8.23;;
70505;SDS011;58032;49.820;6.274;2023-02-23T02:05:19;18.40;;;7.25;;
70505;SDS011;58032;49.820;6.274;2023-02-23T02:07:49;16.25;;;7.57;;
70505;SDS011;58032;49.820;6.274;2023-02-23T02:10:24;16.60;;;7.97;;
70505;SDS011;58032;49.820;6.274;2023-02-23T02:13:08;18.48;;;8.75;;
70505;SDS011;58032;49.820;6.274;2023-02-23T02:15:39;16.73;;;8.50;;
70505;SDS011;58032;49.820;6.274;2023-02-23T02:18:17;19.58;;;9.25;;
70505;SDS011;58032;49.820;6.274;2023-02-23T02:21:07;16.45;;;7.60;;
70505;SDS011;58032;49.820;6.274;2023-02-23T02:24:03;19.92;;;9.40;;
70505;SDS011;58032;49.820;6.274;2023-02-23T02:26:43;20.02;;;7.90;;
70505;SDS011;58032;49.820;6.274;2023-02-23T02:39:31;23.73;;;9.30;;
70505;SDS011;58032;49.820;6.274;2023-02-23T02:44:49;19.42;;;8.80;;
70505;SDS011;58032;49.820;6.274;2023-02-23T02:47:22;16.50;;;8.23;;
70505;SDS011;58032;49.820;6.274;2023-02-23T02:50:39;18.80;;;8.65;;
70505;SDS011;58032;49.820;6.274;2023-02-23T02:52:49;21.60;;;9.75;;
70505;SDS011;58032;49.820;6.274;2023-02-23T02:55:26;21.43;;;10.07;;
70505;SDS011;58032;49.820;6.274;2023-02-23T02:57:56;21.38;;;9.63;;
70505;SDS011;58032;49.820;6.274;2023-02-23T03:00:38;21.83;;;10.23;;
70505;SDS011;58032;49.820;6.274;2023-02-23T03:03:31;18.75;;;9.43;;
70505;SDS011;58032;49.820;6.274;2023-02-23T03:06:18;24.55;;;9.65;;
70505;SDS011;58032;49.820;6.274;2023-02-23T03:14:57;21.10;;;9.57;;
70505;SDS011;58032;49.820;6.274;2023-02-23T03:23:24;20.97;;;8.73;;
70505;SDS011;58032;49.820;6.274;2023-02-23T03:29:24;17.75;;;8.93;;
70505;SDS011;58032;49.820;6.274;2023-02-23T03:32:28;20.10;;;9.55;;
70505;SDS011;58032;49.820;6.274;2023-02-23T03:35:19;19.27;;;8.63;;
70505;SDS011;58032;49.820;6.274;2023-02-23T03:38:09;16.73;;;7.90;;
70505;SDS011;58032;49.820;6.274;2023-02-23T03:40:55;18.27;;;8.88;;
70505;SDS011;58032;49.820;6.274;2023-02-23T03:43:49;19.88;;;8.82;;
70505;SDS011;58032;49.820;6.274;2023-02-23T03:46:37;16.17;;;7.70;;
70505;SDS011;58032;49.820;6.274;2023-02-23T03:49:23;17.98;;;8.73;;
70505;SDS011;58032;49.820;6.274;2023-02-23T03:52:15;18.13;;;8.50;;
70505;SDS011;58032;49.820;6.274;2023-02-23T03:55:17;16.95;;;8.88;;
70505;SDS011;58032;49.820;6.274;2023-02-23T03:58:05;17.95;;;9.07;;
70505;SDS011;58032;49.820;6.274;2023-02-23T04:00:53;18.65;;;9.15;;
70505;SDS011;58032;49.820;6.274;2023-02-23T04:03:42;19.67;;;9.05;;
70505;SDS011;58032;49.820;6.274;2023-02-23T04:06:30;18.40;;;9.43;;
70505;SDS011;58032;49.820;6.274;2023-02-23T04:09:17;18.85;;;9.32;;
70505;SDS011;58032;49.820;6.274;2023-02-23T04:12:13;21.27;;;9.50;;
70505;SDS011;58032;49.820;6.274;2023-02-23T04:15:05;22.60;;;10.23;;
70505;SDS011;58032;49.820;6.274;2023-02-23T04:17:33;21.88;;;10.98;;
70505;SDS011;58032;49.820;6.274;2023-02-23T04:20:00;25.90;;;11.07;;
70505;SDS011;58032;49.820;6.274;2023-02-23T04:22:27;23.83;;;10.57;;
70505;SDS011;58032;49.820;6.274;2023-02-23T04:24:54;25.38;;;11.25;;
70505;SDS011;58032;49.820;6.274;2023-02-23T04:27:20;23.75;;;10.35;;
70505;SDS011;58032;49.820;6.274;2023-02-23T04:29:47;25.75;;;11.65;;
70505;SDS011;58032;49.820;6.274;2023-02-23T04:32:15;21.20;;;10.33;;
70505;SDS011;58032;49.820;6.274;2023-02-23T04:34:43;23.17;;;10.82;;
70505;SDS011;58032;49.820;6.274;2023-02-23T04:37:10;24.80;;;10.88;;
70505;SDS011;58032;49.820;6.274;2023-02-23T04:39:36;22.88;;;10.80;;
70505;SDS011;58032;49.820;6.274;2023-02-23T04:42:03;25.60;;;11.40;;
70505;SDS011;58032;49.820;6.274;2023-02-23T04:44:30;24.70;;;11.27;;
70505;SDS011;58032;49.820;6.274;2023-02-23T04:46:56;24.77;;;11.63;;
70505;SDS011;58032;49.820;6.274;2023-02-23T04:49:23;25.00;;;11.98;;
70505;SDS011;58032;49.820;6.274;2023-02-23T04:51:50;26.55;;;12.85;;
70505;SDS011;58032;49.820;6.274;2023-02-23T04:54:17;24.08;;;12.27;;
70505;SDS011;58032;49.820;6.274;2023-02-23T04:56:43;23.37;;;11.10;;
70505;SDS011;58032;49.820;6.274;2023-02-23T04:59:10;26.92;;;11.20;;
70505;SDS011;58032;49.820;6.274;2023-02-23T05:01:37;25.80;;;10.85;;
70505;SDS011;58032;49.820;6.274;2023-02-23T05:04:04;25.30;;;11.02;;
70505;SDS011;58032;49.820;6.274;2023-02-23T05:06:31;26.20;;;11.88;;
70505;SDS011;58032;49.820;6.274;2023-02-23T05:08:58;29.07;;;11.87;;
70505;SDS011;58032;49.820;6.274;2023-02-23T05:11:24;28.17;;;11.90;;
70505;SDS011;58032;49.820;6.274;2023-02-23T05:13:53;26.40;;;11.82;;
70505;SDS011;58032;49.820;6.274;2023-02-23T05:16:20;24.27;;;11.43;;
70505;SDS011;58032;49.820;6.274;2023-02-23T05:18:46;26.40;;;11.95;;
70505;SDS011;58032;49.820;6.274;2023-02-23T05:21:13;28.40;;;11.60;;
70505;SDS011;58032;49.820;6.274;2023-02-23T05:23:40;31.50;;;12.52;;
70505;SDS011;58032;49.820;6.274;2023-02-23T05:26:10;30.10;;;11.80;;
70505;SDS011;58032;49.820;6.274;2023-02-23T05:28:37;32.10;;;12.27;;
70505;SDS011;58032;49.820;6.274;2023-02-23T05:31:04;41.22;;;12.68;;
70505;SDS011;58032;49.820;6.274;2023-02-23T05:33:32;35.23;;;13.23;;
70505;SDS011;58032;49.820;6.274;2023-02-23T05:35:58;29.58;;;12.90;;
70505;SDS011;58032;49.820;6.274;2023-02-23T05:38:25;44.50;;;12.30;;
70505;SDS011;58032;49.820;6.274;2023-02-23T05:40:52;58.35;;;12.95;;
70505;SDS011;58032;49.820;6.274;2023-02-23T05:43:19;41.60;;;11.82;;
70505;SDS011;58032;49.820;6.274;2023-02-23T05:45:46;57.80;;;12.50;;
70505;SDS011;58032;49.820;6.274;2023-02-23T05:48:13;45.33;;;12.63;;
70505;SDS011;58032;49.820;6.274;2023-02-23T05:50:40;100.75;;;13.27;;
70505;SDS011;58032;49.820;6.274;2023-02-23T05:53:06;102.30;;;14.23;;
70505;SDS011;58032;49.820;6.274;2023-02-23T05:55:34;57.70;;;12.73;;
70505;SDS011;58032;49.820;6.274;2023-02-23T05:58:01;99.13;;;13.83;;
70505;SDS011;58032;49.820;6.274;2023-02-23T06:00:27;64.65;;;12.93;;
70505;SDS011;58032;49.820;6.274;2023-02-23T06:02:54;84.75;;;13.68;;
70505;SDS011;58032;49.820;6.274;2023-02-23T06:05:21;84.25;;;14.95;;
70505;SDS011;58032;49.820;6.274;2023-02-23T06:07:48;122.70;;;15.38;;
70505;SDS011;58032;49.820;6.274;2023-02-23T06:10:15;74.37;;;12.70;;
70505;SDS011;58032;49.820;6.274;2023-02-23T06:12:42;110.07;;;14.88;;
70505;SDS011;58032;49.820;6.274;2023-02-23T06:15:09;81.72;;;13.25;;
70505;SDS011;58032;49.820;6.274;2023-02-23T06:17:35;108.00;;;14.45;;
70505;SDS011;58032;49.820;6.274;2023-02-23T06:20:03;67.55;;;14.38;;
70505;SDS011;58032;49.820;6.274;2023-02-23T06:22:30;76.07;;;13.20;;
70505;SDS011;58032;49.820;6.274;2023-02-23T06:24:57;52.00;;;14.48;;
70505;SDS011;58032;49.820;6.274;2023-02-23T06:27:24;43.30;;;15.13;;
70505;SDS011;58032;49.820;6.274;2023-02-23T06:29:51;87.93;;;13.93;;
70505;SDS011;58032;49.820;6.274;2023-02-23T06:32:18;52.85;;;12.55;;
70505;SDS011;58032;49.820;6.274;2023-02-23T06:34:47;68.27;;;13.50;;
70505;SDS011;58032;49.820;6.274;2023-02-23T06:37:14;49.20;;;12.43;;
70505;SDS011;58032;49.820;6.274;2023-02-23T06:39:40;32.88;;;11.88;;
70505;SDS011;58032;49.820;6.274;2023-02-23T06:42:07;51.65;;;12.25;;
70505;SDS011;58032;49.820;6.274;2023-02-23T06:44:34;65.07;;;13.25;;
70505;SDS011;58032;49.820;6.274;2023-02-23T06:47:02;36.17;;;12.30;;
70505;SDS011;58032;49.820;6.274;2023-02-23T06:49:31;42.45;;;12.35;;
70505;SDS011;58032;49.820;6.274;2023-02-23T06:51:58;45.05;;;11.27;;
70505;SDS011;58032;49.820;6.274;2023-02-23T06:54:24;25.58;;;10.60;;
70505;SDS011;58032;49.820;6.274;2023-02-23T06:56:51;28.05;;;11.05;;
70505;SDS011;58032;49.820;6.274;2023-02-23T06:59:19;30.40;;;11.50;;
70505;SDS011;58032;49.820;6.274;2023-02-23T07:01:45;28.35;;;10.60;;
70505;SDS011;58032;49.820;6.274;2023-02-23T07:04:12;26.13;;;12.20;;
70505;SDS011;58032;49.820;6.274;2023-02-23T07:06:42;27.23;;;11.38;;
70505;SDS011;58032;49.820;6.274;2023-02-23T07:09:08;29.15;;;11.85;;
70505;SDS011;58032;49.820;6.274;2023-02-23T07:11:35;29.30;;;12.27;;
70505;SDS011;58032;49.820;6.274;2023-02-23T07:14:02;27.02;;;11.88;;
70505;SDS011;58032;49.820;6.274;2023-02-23T07:16:28;29.50;;;11.93;;
70505;SDS011;58032;49.820;6.274;2023-02-23T07:18:55;30.25;;;12.82;;
70505;SDS011;58032;49.820;6.274;2023-02-23T07:21:22;29.45;;;11.93;;
70505;SDS011;58032;49.820;6.274;2023-02-23T07:23:49;28.10;;;12.40;;
70505;SDS011;58032;49.820;6.274;2023-02-23T07:26:16;32.00;;;12.48;;
70505;SDS011;58032;49.820;6.274;2023-02-23T07:28:43;24.60;;;11.40;;
70505;SDS011;58032;49.820;6.274;2023-02-23T07:31:10;27.30;;;11.30;;
70505;SDS011;58032;49.820;6.274;2023-02-23T07:33:37;30.60;;;10.65;;
70505;SDS011;58032;49.820;6.274;2023-02-23T07:36:04;23.17;;;9.87;;
70505;SDS011;58032;49.820;6.274;2023-02-23T07:38:31;24.55;;;9.88;;
70505;SDS011;58032;49.820;6.274;2023-02-23T07:40:57;23.75;;;9.18;;
70505;SDS011;58032;49.820;6.274;2023-02-23T07:43:24;20.42;;;7.97;;
70505;SDS011;58032;49.820;6.274;2023-02-23T07:45:51;22.63;;;8.93;;
70505;SDS011;58032;49.820;6.274;2023-02-23T07:48:18;25.20;;;9.17;;
70505;SDS011;58032;49.820;6.274;2023-02-23T07:50:45;19.65;;;7.57;;
70505;SDS011;58032;49.820;6.274;2023-02-23T07:53:12;20.20;;;8.60;;
70505;SDS011;58032;49.820;6.274;2023-02-23T07:55:40;25.45;;;9.63;;
70505;SDS011;58032;49.820;6.274;2023-02-23T07:58:06;27.30;;;10.95;;
70505;SDS011;58032;49.820;6.274;2023-02-23T08:00:34;22.67;;;9.73;;
70505;SDS011;58032;49.820;6.274;2023-02-23T08:03:02;24.95;;;9.52;;
70505;SDS011;58032;49.820;6.274;2023-02-23T08:05:29;38.47;;;9.13;;
70505;SDS011;58032;49.820;6.274;2023-02-23T08:07:56;24.25;;;9.52;;
70505;SDS011;58032;49.820;6.274;2023-02-23T08:10:23;25.30;;;9.80;;
70505;SDS011;58032;49.820;6.274;2023-02-23T08:12:50;25.67;;;10.53;;
70505;SDS011;58032;49.820;6.274;2023-02-23T08:15:17;21.55;;;9.57;;
70505;SDS011;58032;49.820;6.274;2023-02-23T08:17:44;26.38;;;11.25;;
70505;SDS011;58032;49.820;6.274;2023-02-23T08:20:10;21.95;;;9.60;;
70505;SDS011;58032;49.820;6.274;2023-02-23T08:22:37;23.10;;;10.63;;
70505;SDS011;58032;49.820;6.274;2023-02-23T08:25:14;26.30;;;10.67;;
70505;SDS011;58032;49.820;6.274;2023-02-23T08:27:41;23.60;;;10.98;;
70505;SDS011;58032;49.820;6.274;2023-02-23T08:30:08;24.65;;;11.15;;
70505;SDS011;58032;49.820;6.274;2023-02-23T08:32:35;27.02;;;10.95;;
70505;SDS011;58032;49.820;6.274;2023-02-23T08:35:02;26.52;;;12.02;;
70505;SDS011;58032;49.820;6.274;2023-02-23T08:37:28;27.27;;;12.23;;
70505;SDS011;58032;49.820;6.274;2023-02-23T08:39:55;25.83;;;11.73;;
70505;SDS011;58032;49.820;6.274;2023-02-23T08:42:22;24.88;;;11.73;;
70505;SDS011;58032;49.820;6.274;2023-02-23T08:44:49;24.90;;;12.00;;
70505;SDS011;58032;49.820;6.274;2023-02-23T08:47:16;24.48;;;11.75;;
70505;SDS011;58032;49.820;6.274;2023-02-23T08:49:49;26.10;;;11.63;;
70505;SDS011;58032;49.820;6.274;2023-02-23T08:52:16;25.20;;;11.65;;
70505;SDS011;58032;49.820;6.274;2023-02-23T08:54:42;27.20;;;12.85;;
70505;SDS011;58032;49.820;6.274;2023-02-23T08:57:09;27.40;;;12.27;;
70505;SDS011;58032;49.820;6.274;2023-02-23T08:59:38;27.77;;;12.45;;
70505;SDS011;58032;49.820;6.274;2023-02-23T09:02:08;26.30;;;12.97;;
70505;SDS011;58032;49.820;6.274;2023-02-23T09:04:37;25.40;;;12.73;;
70505;SDS011;58032;49.820;6.274;2023-02-23T09:07:03;27.05;;;12.45;;
70505;SDS011;58032;49.820;6.274;2023-02-23T09:09:30;25.92;;;13.00;;
70505;SDS011;58032;49.820;6.274;2023-02-23T09:11:58;27.52;;;13.57;;
70505;SDS011;58032;49.820;6.274;2023-02-23T09:14:25;26.33;;;12.67;;
70505;SDS011;58032;49.820;6.274;2023-02-23T09:16:52;22.35;;;11.88;;
70505;SDS011;58032;49.820;6.274;2023-02-23T09:19:19;25.25;;;12.90;;
70505;SDS011;58032;49.820;6.274;2023-02-23T09:21:46;26.15;;;13.10;;
70505;SDS011;58032;49.820;6.274;2023-02-23T09:24:12;29.70;;;14.38;;
70505;SDS011;58032;49.820;6.274;2023-02-23T09:26:39;24.90;;;13.03;;
70505;SDS011;58032;49.820;6.274;2023-02-23T09:29:10;21.02;;;11.18;;
70505;SDS011;58032;49.820;6.274;2023-02-23T09:31:37;22.30;;;11.82;;
70505;SDS011;58032;49.820;6.274;2023-02-23T09:34:04;25.73;;;12.38;;
70505;SDS011;58032;49.820;6.274;2023-02-23T09:36:30;24.70;;;12.17;;
70505;SDS011;58032;49.820;6.274;2023-02-23T09:38:57;26.50;;;11.65;;
70505;SDS011;58032;49.820;6.274;2023-02-23T09:44:15;23.77;;;12.20;;
70505;SDS011;58032;49.820;6.274;2023-02-23T09:46:47;26.15;;;12.55;;
70505;SDS011;58032;49.820;6.274;2023-02-23T09:49:17;25.23;;;12.45;;
70505;SDS011;58032;49.820;6.274;2023-02-23T09:51:46;25.00;;;12.68;;
70505;SDS011;58032;49.820;6.274;2023-02-23T09:54:14;27.13;;;13.40;;
70505;SDS011;58032;49.820;6.274;2023-02-23T09:56:42;23.15;;;13.18;;
70505;SDS011;58032;49.820;6.274;2023-02-23T09:59:15;24.23;;;11.57;;
70505;SDS011;58032;49.820;6.274;2023-02-23T10:01:48;25.15;;;12.75;;
70505;SDS011;58032;49.820;6.274;2023-02-23T10:04:25;26.88;;;13.43;;
70505;SDS011;58032;49.820;6.274;2023-02-23T10:09:43;25.20;;;11.70;;
70505;SDS011;58032;49.820;6.274;2023-02-23T10:14:56;23.52;;;12.45;;
70505;SDS011;58032;49.820;6.274;2023-02-23T10:17:39;25.13;;;11.68;;
70505;SDS011;58032;49.820;6.274;2023-02-23T10:22:46;22.15;;;10.50;;
70505;SDS011;58032;49.820;6.274;2023-02-23T10:25:23;20.30;;;10.55;;
70505;SDS011;58032;49.820;6.274;2023-02-23T10:27:51;21.15;;;9.77;;
70505;SDS011;58032;49.820;6.274;2023-02-23T10:30:25;23.98;;;11.38;;
70505;SDS011;58032;49.820;6.274;2023-02-23T10:33:00;21.80;;;10.75;;
70505;SDS011;58032;49.820;6.274;2023-02-23T10:35:30;11.88;;;6.18;;
70505;SDS011;58032;49.820;6.274;2023-02-23T10:37:58;17.80;;;9.90;;
70505;SDS011;58032;49.820;6.274;2023-02-23T10:40:26;19.90;;;9.70;;
70505;SDS011;58032;49.820;6.274;2023-02-23T10:42:55;19.55;;;10.40;;
70505;SDS011;58032;49.820;6.274;2023-02-23T10:45:24;20.67;;;10.43;;
70505;SDS011;58032;49.820;6.274;2023-02-23T10:48:25;20.65;;;10.13;;
70505;SDS011;58032;49.820;6.274;2023-02-23T10:50:44;24.77;;;10.43;;
70505;SDS011;58032;49.820;6.274;2023-02-23T10:53:15;20.30;;;10.35;;
70505;SDS011;58032;49.820;6.274;2023-02-23T10:55:43;21.73;;;10.63;;
70505;SDS011;58032;49.820;6.274;2023-02-23T10:58:15;21.80;;;10.38;;
70505;SDS011;58032;49.820;6.274;2023-02-23T11:00:56;20.95;;;9.73;;
70505;SDS011;58032;49.820;6.274;2023-02-23T11:03:34;20.85;;;9.77;;
70505;SDS011;58032;49.820;6.274;2023-02-23T11:06:01;19.67;;;9.88;;
70505;SDS011;58032;49.820;6.274;2023-02-23T11:13:28;23.58;;;10.00;;
70505;SDS011;58032;49.820;6.274;2023-02-23T11:16:03;20.52;;;10.10;;
70505;SDS011;58032;49.820;6.274;2023-02-23T11:18:32;19.27;;;9.40;;
70505;SDS011;58032;49.820;6.274;2023-02-23T11:20:58;19.70;;;9.57;;
70505;SDS011;58032;49.820;6.274;2023-02-23T11:23:26;17.42;;;8.98;;
70505;SDS011;58032;49.820;6.274;2023-02-23T11:26:00;17.20;;;9.13;;
70505;SDS011;58032;49.820;6.274;2023-02-23T11:28:29;18.98;;;9.40;;
70505;SDS011;58032;49.820;6.274;2023-02-23T11:31:00;18.85;;;9.50;;
70505;SDS011;58032;49.820;6.274;2023-02-23T11:33:29;17.20;;;8.82;;
70505;SDS011;58032;49.820;6.274;2023-02-23T11:35:58;17.98;;;8.55;;
70505;SDS011;58032;49.820;6.274;2023-02-23T11:38:26;16.70;;;8.70;;
70505;SDS011;58032;49.820;6.274;2023-02-23T11:41:00;16.63;;;8.85;;
70505;SDS011;58032;49.820;6.274;2023-02-23T11:43:27;18.00;;;8.82;;
70505;SDS011;58032;49.820;6.274;2023-02-23T11:45:58;19.02;;;9.63;;
70505;SDS011;58032;49.820;6.274;2023-02-23T11:48:32;18.55;;;8.15;;
70505;SDS011;58032;49.820;6.274;2023-02-23T11:51:00;15.82;;;7.90;;
70505;SDS011;58032;49.820;6.274;2023-02-23T11:53:31;18.65;;;8.95;;
70505;SDS011;58032;49.820;6.274;2023-02-23T11:56:00;17.20;;;8.30;;
70505;SDS011;58032;49.820;6.274;2023-02-23T11:58:36;15.10;;;7.82;;
70505;SDS011;58032;49.820;6.274;2023-02-23T12:01:08;20.95;;;10.77;;
70505;SDS011;58032;49.820;6.274;2023-02-23T12:03:42;15.25;;;7.65;;
70505;SDS011;58032;49.820;6.274;2023-02-23T12:06:10;15.00;;;8.00;;
70505;SDS011;58032;49.820;6.274;2023-02-23T12:08:44;17.40;;;7.97;;
70505;SDS011;58032;49.820;6.274;2023-02-23T12:11:14;16.20;;;8.02;;
70505;SDS011;58032;49.820;6.274;2023-02-23T12:13:48;14.75;;;7.35;;
70505;SDS011;58032;49.820;6.274;2023-02-23T12:16:17;14.25;;;7.22;;
70505;SDS011;58032;49.820;6.274;2023-02-23T12:26:35;10.57;;;5.57;;
70505;SDS011;58032;49.820;6.274;2023-02-23T12:29:21;9.75;;;4.90;;
70505;SDS011;58032;49.820;6.274;2023-02-23T12:31:53;11.43;;;5.95;;
70505;SDS011;58032;49.820;6.274;2023-02-23T12:34:28;11.10;;;5.30;;
70505;SDS011;58032;49.820;6.274;2023-02-23T12:39:37;7.88;;;3.75;;
70505;SDS011;58032;49.820;6.274;2023-02-23T12:44:59;11.68;;;5.22;;
70505;SDS011;58032;49.820;6.274;2023-02-23T12:47:36;10.70;;;5.03;;
70505;SDS011;58032;49.820;6.274;2023-02-23T12:52:42;10.07;;;5.88;;
70505;SDS011;58032;49.820;6.274;2023-02-23T12:55:11;9.52;;;4.78;;
70505;SDS011;58032;49.820;6.274;2023-02-23T13:02:57;12.37;;;5.13;;
70505;SDS011;58032;49.820;6.274;2023-02-23T13:05:31;8.48;;;4.85;;
70505;SDS011;58032;49.820;6.274;2023-02-23T13:08:38;8.93;;;4.25;;
70505;SDS011;58032;49.820;6.274;2023-02-23T13:11:05;8.27;;;4.50;;
70505;SDS011;58032;49.820;6.274;2023-02-23T13:16:17;7.93;;;4.57;;
70505;SDS011;58032;49.820;6.274;2023-02-23T13:19:05;7.18;;;3.97;;
70505;SDS011;58032;49.820;6.274;2023-02-23T13:21:40;7.63;;;3.60;;
70505;SDS011;58032;49.820;6.274;2023-02-23T13:24:16;8.20;;;4.43;;
70505;SDS011;58032;49.820;6.274;2023-02-23T13:26:52;9.00;;;4.30;;
70505;SDS011;58032;49.820;6.274;2023-02-23T13:29:31;7.05;;;3.30;;
70505;SDS011;58032;49.820;6.274;2023-02-23T13:32:00;8.90;;;4.60;;
70505;SDS011;58032;49.820;6.274;2023-02-23T13:34:34;8.75;;;4.65;;
70505;SDS011;58032;49.820;6.274;2023-02-23T13:37:03;8.65;;;4.57;;
70505;SDS011;58032;49.820;6.274;2023-02-23T13:42:37;8.02;;;4.00;;
70505;SDS011;58032;49.820;6.274;2023-02-23T13:45:26;8.95;;;4.70;;
70505;SDS011;58032;49.820;6.274;2023-02-23T13:47:55;8.75;;;4.40;;
70505;SDS011;58032;49.820;6.274;2023-02-23T13:50:26;9.50;;;4.25;;
70505;SDS011;58032;49.820;6.274;2023-02-23T13:52:57;8.20;;;4.00;;
70505;SDS011;58032;49.820;6.274;2023-02-23T13:58:05;9.00;;;4.18;;
70505;SDS011;58032;49.820;6.274;2023-02-23T14:00:36;8.82;;;3.90;;
70505;SDS011;58032;49.820;6.274;2023-02-23T14:03:03;6.00;;;3.25;;
70505;SDS011;58032;49.820;6.274;2023-02-23T14:05:35;5.30;;;2.13;;
70505;SDS011;58032;49.820;6.274;2023-02-23T14:08:06;6.45;;;2.92;;
70505;SDS011;58032;49.820;6.274;2023-02-23T14:10:40;7.22;;;3.45;;
70505;SDS011;58032;49.820;6.274;2023-02-23T14:23:30;6.85;;;3.45;;
70505;SDS011;58032;49.820;6.274;2023-02-23T14:26:11;6.72;;;3.30;;
70505;SDS011;58032;49.820;6.274;2023-02-23T14:28:39;5.50;;;2.75;;
70505;SDS011;58032;49.820;6.274;2023-02-23T14:36:26;6.40;;;3.25;;
70505;SDS011;58032;49.820;6.274;2023-02-23T14:41:23;6.30;;;3.30;;
70505;SDS011;58032;49.820;6.274;2023-02-23T14:43:54;6.37;;;2.80;;
70505;SDS011;58032;49.820;6.274;2023-02-23T14:46:25;8.50;;;3.10;;
70505;SDS011;58032;49.820;6.274;2023-02-23T14:48:56;5.78;;;2.97;;
70505;SDS011;58032;49.820;6.274;2023-02-23T14:51:27;6.72;;;3.17;;
70505;SDS011;58032;49.820;6.274;2023-02-23T14:53:59;7.88;;;2.88;;
70505;SDS011;58032;49.820;6.274;2023-02-23T14:56:26;7.43;;;3.23;;
70505;SDS011;58032;49.820;6.274;2023-02-23T14:59:07;6.45;;;3.22;;
70505;SDS011;58032;49.820;6.274;2023-02-23T15:01:37;8.88;;;3.40;;
70505;SDS011;58032;49.820;6.274;2023-02-23T15:04:12;7.28;;;2.72;;
70505;SDS011;58032;49.820;6.274;2023-02-23T15:06:39;7.80;;;2.70;;
70505;SDS011;58032;49.820;6.274;2023-02-23T15:09:09;5.53;;;2.47;;
70505;SDS011;58032;49.820;6.274;2023-02-23T15:11:41;4.65;;;2.10;;
70505;SDS011;58032;49.820;6.274;2023-02-23T15:14:14;5.72;;;2.25;;
70505;SDS011;58032;49.820;6.274;2023-02-23T15:16:52;4.75;;;2.15;;
70505;SDS011;58032;49.820;6.274;2023-02-23T15:19:20;6.72;;;2.08;;
70505;SDS011;58032;49.820;6.274;2023-02-23T15:21:53;4.70;;;1.70;;
70505;SDS011;58032;49.820;6.274;2023-02-23T15:24:21;6.18;;;2.08;;
70505;SDS011;58032;49.820;6.274;2023-02-23T15:26:50;6.70;;;2.42;;
70505;SDS011;58032;49.820;6.274;2023-02-23T15:29:18;5.95;;;2.30;;
70505;SDS011;58032;49.820;6.274;2023-02-23T15:31:48;5.95;;;2.10;;
70505;SDS011;58032;49.820;6.274;2023-02-23T15:34:19;6.47;;;2.40;;
70505;SDS011;58032;49.820;6.274;2023-02-23T15:36:47;7.60;;;2.30;;
70505;SDS011;58032;49.820;6.274;2023-02-23T15:39:15;5.00;;;2.47;;
70505;SDS011;58032;49.820;6.274;2023-02-23T15:41:44;6.70;;;2.20;;
70505;SDS011;58032;49.820;6.274;2023-02-23T15:44:13;7.93;;;2.40;;
70505;SDS011;58032;49.820;6.274;2023-02-23T15:46:41;5.43;;;2.33;;
70505;SDS011;58032;49.820;6.274;2023-02-23T15:49:11;6.28;;;2.33;;
70505;SDS011;58032;49.820;6.274;2023-02-23T15:51:40;5.05;;;2.28;;
70505;SDS011;58032;49.820;6.274;2023-02-23T15:54:18;4.70;;;1.70;;
70505;SDS011;58032;49.820;6.274;2023-02-23T15:56:47;7.57;;;2.28;;
70505;SDS011;58032;49.820;6.274;2023-02-23T15:59:18;7.57;;;2.20;;
70505;SDS011;58032;49.820;6.274;2023-02-23T16:01:46;5.95;;;2.45;;
70505;SDS011;58032;49.820;6.274;2023-02-23T16:04:15;6.88;;;3.03;;
70505;SDS011;58032;49.820;6.274;2023-02-23T16:06:50;6.28;;;2.40;;
70505;SDS011;58032;49.820;6.274;2023-02-23T16:11:50;6.73;;;2.63;;
70505;SDS011;58032;49.820;6.274;2023-02-23T16:14:18;8.20;;;2.83;;
70505;SDS011;58032;49.820;6.274;2023-02-23T16:16:46;8.10;;;3.55;;
70505;SDS011;58032;49.820;6.274;2023-02-23T16:19:20;7.78;;;2.80;;
70505;SDS011;58032;49.820;6.274;2023-02-23T16:21:50;8.60;;;3.28;;
70505;SDS011;58032;49.820;6.274;2023-02-23T16:24:24;7.60;;;3.53;;
70505;SDS011;58032;49.820;6.274;2023-02-23T16:26:57;5.65;;;2.17;;
70505;SDS011;58032;49.820;6.274;2023-02-23T16:29:44;6.57;;;2.75;;